Elpida Gr — 9HA2241 — position and weather

sailwx.info

Track history (hours):
 
Tides and Currents Weather Stations Pressure Air Temp Water Temp Dewpoint Dewpoint Depression Visibility Wind Speed Wind Dir Waves Ship Positions

Elpida Gr

Last reported at 2018-Feb-19 22:36 UTC. Time now 2018-Feb-21 09:26 UTC.
Position N 41°39' E 141°47'.

Length 190 m; draft 8.2 m.

Type: Ship. MMSI: 248197000.

Date/timePositionNaut miles runAvg speedWind from/ knotsBaromVisibWave heightAir tempDewpointWater temp
2018-Feb-19 22:36N 41°39' E 141°47'112.3
2018-Feb-19 22:30N 41°39' E 141°45'612.3
2018-Feb-19 22:00N 41°38' E 141°37'713.5
2018-Feb-19 21:30N 41°39' E 141°28'612.9
2018-Feb-19 21:00N 41°38' E 141°19'612.1
2018-Feb-19 20:30N 41°38' E 141°11'713.8
2018-Feb-19 20:00N 41°38' E 141°02'815.2
2018-Feb-19 19:30N 41°38' E 140°52'714.7
2018-Feb-19 19:00N 41°34' E 140°43'714.2
2018-Feb-19 18:30N 41°30' E 140°36'713.5
2018-Feb-19 18:00N 41°26' E 140°28'714.3
2018-Feb-19 17:30N 41°22' E 140°20'715.1
2018-Feb-19 17:00N 41°17' E 140°12'  
Track history (hours):
 
Tides and Currents Weather Stations Pressure Air Temp Water Temp Dewpoint Dewpoint Depression Visibility Wind Speed Wind Dir Waves Ship Positions

Elpida Gr

Last reported at 2018-Feb-19 22:36 UTC. Time now 2018-Feb-21 09:26 UTC.
Position N 41°39' E 141°47'.

Length 190 m; draft 8.2 m.

Type: Ship. MMSI: 248197000.

Date/timePositionNaut miles runAvg speedWind from/ knotsBaromVisibWave heightAir tempDewpointWater temp
2018-Feb-19 22:36N 41°39' E 141°47'112.3
2018-Feb-19 22:30N 41°39' E 141°45'612.3
2018-Feb-19 22:00N 41°38' E 141°37'713.5
2018-Feb-19 21:30N 41°39' E 141°28'612.9
2018-Feb-19 21:00N 41°38' E 141°19'612.1
2018-Feb-19 20:30N 41°38' E 141°11'713.8
2018-Feb-19 20:00N 41°38' E 141°02'815.2
2018-Feb-19 19:30N 41°38' E 140°52'714.7
2018-Feb-19 19:00N 41°34' E 140°43'714.2
2018-Feb-19 18:30N 41°30' E 140°36'713.5
2018-Feb-19 18:00N 41°26' E 140°28'714.3
2018-Feb-19 17:30N 41°22' E 140°20'715.1
2018-Feb-19 17:00N 41°17' E 140°12'  

Dump ship's entire track history